sensor_id;sensor_type;location;lat;lon;timestamp;temperature;humidity
20732;DHT22;10527;52.124;5.196;2023-03-01T00:01:52;2.20;99.90
20732;DHT22;10527;52.124;5.196;2023-03-01T00:04:28;2.10;99.90
20732;DHT22;10527;52.124;5.196;2023-03-01T00:06:55;2.20;99.90
20732;DHT22;10527;52.124;5.196;2023-03-01T00:09:22;2.20;99.90
20732;DHT22;10527;52.124;5.196;2023-03-01T00:11:48;2.20;99.90
20732;DHT22;10527;52.124;5.196;2023-03-01T00:14:15;2.10;99.90
20732;DHT22;10527;52.124;5.196;2023-03-01T00:16:44;2.10;99.90
20732;DHT22;10527;52.124;5.196;2023-03-01T00:19:14;2.10;99.90
20732;DHT22;10527;52.124;5.196;2023-03-01T00:21:43;2.10;99.90
20732;DHT22;10527;52.124;5.196;2023-03-01T00:24:13;2.10;99.90
20732;DHT22;10527;52.124;5.196;2023-03-01T00:26:40;2.00;99.90
20732;DHT22;10527;52.124;5.196;2023-03-01T00:29:07;2.00;99.90
20732;DHT22;10527;52.124;5.196;2023-03-01T00:31:40;2.00;99.90
20732;DHT22;10527;52.124;5.196;2023-03-01T00:34:07;1.90;99.90
20732;DHT22;10527;52.124;5.196;2023-03-01T00:36:38;2.00;99.90
20732;DHT22;10527;52.124;5.196;2023-03-01T00:39:10;2.00;99.90
20732;DHT22;10527;52.124;5.196;2023-03-01T00:41:45;1.90;99.90
20732;DHT22;10527;52.124;5.196;2023-03-01T00:44:12;1.90;99.90
20732;DHT22;10527;52.124;5.196;2023-03-01T00:46:39;1.80;99.90
20732;DHT22;10527;52.124;5.196;2023-03-01T00:49:06;1.80;99.90
20732;DHT22;10527;52.124;5.196;2023-03-01T00:51:35;1.70;99.90
20732;DHT22;10527;52.124;5.196;2023-03-01T00:54:02;1.70;99.90
20732;DHT22;10527;52.124;5.196;2023-03-01T00:56:30;1.70;99.90
20732;DHT22;10527;52.124;5.196;2023-03-01T00:58:58;1.70;99.90
20732;DHT22;10527;52.124;5.196;2023-03-01T01:01:27;1.60;99.90
20732;DHT22;10527;52.124;5.196;2023-03-01T01:04:02;1.60;99.90
20732;DHT22;10527;52.124;5.196;2023-03-01T01:06:37;1.60;99.90
20732;DHT22;10527;52.124;5.196;2023-03-01T01:09:07;1.60;99.90
20732;DHT22;10527;52.124;5.196;2023-03-01T01:11:34;1.60;99.90
20732;DHT22;10527;52.124;5.196;2023-03-01T01:14:06;1.60;99.90
20732;DHT22;10527;52.124;5.196;2023-03-01T01:16:38;1.50;99.90
20732;DHT22;10527;52.124;5.196;2023-03-01T01:19:06;1.50;99.90
20732;DHT22;10527;52.124;5.196;2023-03-01T01:21:33;1.60;99.90
20732;DHT22;10527;52.124;5.196;2023-03-01T01:24:00;1.50;99.90
20732;DHT22;10527;52.124;5.196;2023-03-01T01:26:33;1.60;99.90
20732;DHT22;10527;52.124;5.196;2023-03-01T01:29:02;1.60;99.90
20732;DHT22;10527;52.124;5.196;2023-03-01T01:31:31;1.50;99.90
20732;DHT22;10527;52.124;5.196;2023-03-01T01:34:05;1.50;99.90
20732;DHT22;10527;52.124;5.196;2023-03-01T01:36:34;1.50;99.90
20732;DHT22;10527;52.124;5.196;2023-03-01T01:39:01;1.40;99.90
20732;DHT22;10527;52.124;5.196;2023-03-01T01:41:29;1.30;99.90
20732;DHT22;10527;52.124;5.196;2023-03-01T01:46:41;1.30;99.90
20732;DHT22;10527;52.124;5.196;2023-03-01T01:52:25;1.30;99.90
20732;DHT22;10527;52.124;5.196;2023-03-01T01:54:57;1.30;99.90
20732;DHT22;10527;52.124;5.196;2023-03-01T01:57:32;1.40;99.90
20732;DHT22;10527;52.124;5.196;2023-03-01T02:00:06;1.30;99.90
20732;DHT22;10527;52.124;5.196;2023-03-01T02:02:38;1.20;99.90
20732;DHT22;10527;52.124;5.196;2023-03-01T02:05:28;1.20;99.90
20732;DHT22;10527;52.124;5.196;2023-03-01T02:07:58;1.20;99.90
20732;DHT22;10527;52.124;5.196;2023-03-01T02:10:27;1.20;99.90
20732;DHT22;10527;52.124;5.196;2023-03-01T02:12:55;1.20;99.90
20732;DHT22;10527;52.124;5.196;2023-03-01T02:15:24;1.20;99.90
20732;DHT22;10527;52.124;5.196;2023-03-01T02:17:54;1.20;99.90
20732;DHT22;10527;52.124;5.196;2023-03-01T02:20:58;1.10;99.90
20732;DHT22;10527;52.124;5.196;2023-03-01T02:23:43;1.10;99.90
20732;DHT22;10527;52.124;5.196;2023-03-01T02:26:40;1.10;99.90
20732;DHT22;10527;52.124;5.196;2023-03-01T02:29:11;1.10;99.90
20732;DHT22;10527;52.124;5.196;2023-03-01T02:31:44;1.00;99.90
20732;DHT22;10527;52.124;5.196;2023-03-01T02:34:23;1.00;99.90
20732;DHT22;10527;52.124;5.196;2023-03-01T02:37:00;0.90;99.90
20732;DHT22;10527;52.124;5.196;2023-03-01T02:39:37;1.00;99.90
20732;DHT22;10527;52.124;5.196;2023-03-01T02:42:14;0.90;99.90
20732;DHT22;10527;52.124;5.196;2023-03-01T02:44:44;1.00;99.90
20732;DHT22;10527;52.124;5.196;2023-03-01T02:47:11;0.90;99.90
20732;DHT22;10527;52.124;5.196;2023-03-01T02:49:38;0.90;99.90
20732;DHT22;10527;52.124;5.196;2023-03-01T02:55:10;0.90;99.90
20732;DHT22;10527;52.124;5.196;2023-03-01T02:57:42;0.90;99.90
20732;DHT22;10527;52.124;5.196;2023-03-01T03:00:22;0.90;99.90
20732;DHT22;10527;52.124;5.196;2023-03-01T03:02:54;0.90;99.90
20732;DHT22;10527;52.124;5.196;2023-03-01T03:05:29;0.90;99.90
20732;DHT22;10527;52.124;5.196;2023-03-01T03:08:01;0.90;99.90
20732;DHT22;10527;52.124;5.196;2023-03-01T03:10:32;0.80;99.90
20732;DHT22;10527;52.124;5.196;2023-03-01T03:13:04;0.80;99.90
20732;DHT22;10527;52.124;5.196;2023-03-01T03:15:36;0.80;99.90
20732;DHT22;10527;52.124;5.196;2023-03-01T03:18:10;0.70;99.90
20732;DHT22;10527;52.124;5.196;2023-03-01T03:20:40;0.70;99.90
20732;DHT22;10527;52.124;5.196;2023-03-01T03:23:09;0.70;99.90
20732;DHT22;10527;52.124;5.196;2023-03-01T03:25:36;0.70;99.90
20732;DHT22;10527;52.124;5.196;2023-03-01T03:28:05;0.70;99.90
20732;DHT22;10527;52.124;5.196;2023-03-01T03:30:40;0.70;99.90
20732;DHT22;10527;52.124;5.196;2023-03-01T03:33:10;0.60;99.90
20732;DHT22;10527;52.124;5.196;2023-03-01T03:35:44;0.70;99.90
20732;DHT22;10527;52.124;5.196;2023-03-01T03:38:15;0.60;99.90
20732;DHT22;10527;52.124;5.196;2023-03-01T03:40:54;0.70;99.90
20732;DHT22;10527;52.124;5.196;2023-03-01T03:43:39;0.70;99.90
20732;DHT22;10527;52.124;5.196;2023-03-01T03:46:11;0.70;99.90
20732;DHT22;10527;52.124;5.196;2023-03-01T03:48:41;0.60;99.90
20732;DHT22;10527;52.124;5.196;2023-03-01T03:51:15;0.50;99.90
20732;DHT22;10527;52.124;5.196;2023-03-01T03:53:46;0.50;99.90
20732;DHT22;10527;52.124;5.196;2023-03-01T03:56:12;0.50;99.90
20732;DHT22;10527;52.124;5.196;2023-03-01T03:58:40;0.50;99.90
20732;DHT22;10527;52.124;5.196;2023-03-01T04:01:15;0.40;99.90
20732;DHT22;10527;52.124;5.196;2023-03-01T04:03:45;0.40;99.90
20732;DHT22;10527;52.124;5.196;2023-03-01T04:06:15;0.40;99.90
20732;DHT22;10527;52.124;5.196;2023-03-01T04:08:45;0.40;99.90
20732;DHT22;10527;52.124;5.196;2023-03-01T04:11:12;0.40;99.90
20732;DHT22;10527;52.124;5.196;2023-03-01T04:14:09;0.40;99.90
20732;DHT22;10527;52.124;5.196;2023-03-01T04:16:36;0.40;99.90
20732;DHT22;10527;52.124;5.196;2023-03-01T04:19:03;0.40;99.90
20732;DHT22;10527;52.124;5.196;2023-03-01T04:21:33;0.40;99.90
20732;DHT22;10527;52.124;5.196;2023-03-01T04:24:02;0.40;99.90
20732;DHT22;10527;52.124;5.196;2023-03-01T04:26:32;0.40;99.90
20732;DHT22;10527;52.124;5.196;2023-03-01T04:28:59;0.40;99.90
20732;DHT22;10527;52.124;5.196;2023-03-01T04:31:25;0.30;99.90
20732;DHT22;10527;52.124;5.196;2023-03-01T04:33:54;0.30;99.90
20732;DHT22;10527;52.124;5.196;2023-03-01T04:36:27;0.30;99.90
20732;DHT22;10527;52.124;5.196;2023-03-01T04:38:56;0.20;99.90
20732;DHT22;10527;52.124;5.196;2023-03-01T04:41:26;0.20;99.90
20732;DHT22;10527;52.124;5.196;2023-03-01T04:43:53;0.20;99.90
20732;DHT22;10527;52.124;5.196;2023-03-01T04:46:20;0.30;99.90
20732;DHT22;10527;52.124;5.196;2023-03-01T04:48:54;0.30;99.90
20732;DHT22;10527;52.124;5.196;2023-03-01T04:51:21;0.30;99.90
20732;DHT22;10527;52.124;5.196;2023-03-01T04:53:49;0.20;99.90
20732;DHT22;10527;52.124;5.196;2023-03-01T04:56:19;0.20;99.90
20732;DHT22;10527;52.124;5.196;2023-03-01T04:58:46;0.20;99.90
20732;DHT22;10527;52.124;5.196;2023-03-01T05:01:21;0.10;99.90
20732;DHT22;10527;52.124;5.196;2023-03-01T05:03:51;0.10;99.90
20732;DHT22;10527;52.124;5.196;2023-03-01T05:06:25;0.00;99.90
20732;DHT22;10527;52.124;5.196;2023-03-01T05:08:51;0.00;99.90
20732;DHT22;10527;52.124;5.196;2023-03-01T05:11:22;0.10;99.90
20732;DHT22;10527;52.124;5.196;2023-03-01T05:13:49;0.00;99.90
20732;DHT22;10527;52.124;5.196;2023-03-01T05:16:21;0.00;99.90
20732;DHT22;10527;52.124;5.196;2023-03-01T05:18:48;0.00;99.90
20732;DHT22;10527;52.124;5.196;2023-03-01T05:21:18;0.00;99.90
20732;DHT22;10527;52.124;5.196;2023-03-01T05:23:45;-0.10;99.90
20732;DHT22;10527;52.124;5.196;2023-03-01T05:26:15;-0.10;99.90
20732;DHT22;10527;52.124;5.196;2023-03-01T05:28:59;0.00;99.90
20732;DHT22;10527;52.124;5.196;2023-03-01T05:31:27;0.00;99.90
20732;DHT22;10527;52.124;5.196;2023-03-01T05:33:54;0.00;99.90
20732;DHT22;10527;52.124;5.196;2023-03-01T05:36:21;0.00;99.90
20732;DHT22;10527;52.124;5.196;2023-03-01T05:38:48;0.00;99.90
20732;DHT22;10527;52.124;5.196;2023-03-01T05:41:18;-0.10;99.90
20732;DHT22;10527;52.124;5.196;2023-03-01T05:43:47;-0.10;99.90
20732;DHT22;10527;52.124;5.196;2023-03-01T05:46:14;-0.10;99.90
20732;DHT22;10527;52.124;5.196;2023-03-01T05:48:41;-0.10;99.90
20732;DHT22;10527;52.124;5.196;2023-03-01T05:51:08;-0.20;99.90
20732;DHT22;10527;52.124;5.196;2023-03-01T05:53:35;-0.10;99.90
20732;DHT22;10527;52.124;5.196;2023-03-01T05:56:05;-0.10;99.90
20732;DHT22;10527;52.124;5.196;2023-03-01T05:58:32;-0.10;99.90
20732;DHT22;10527;52.124;5.196;2023-03-01T06:00:59;-0.10;99.90
20732;DHT22;10527;52.124;5.196;2023-03-01T06:03:26;-0.20;99.90
20732;DHT22;10527;52.124;5.196;2023-03-01T06:06:00;-0.20;99.90
20732;DHT22;10527;52.124;5.196;2023-03-01T06:08:29;-0.20;99.90
20732;DHT22;10527;52.124;5.196;2023-03-01T06:10:56;-0.20;99.90
20732;DHT22;10527;52.124;5.196;2023-03-01T06:13:24;-0.30;99.90
20732;DHT22;10527;52.124;5.196;2023-03-01T06:15:51;-0.30;99.90
20732;DHT22;10527;52.124;5.196;2023-03-01T06:18:18;-0.20;99.90
20732;DHT22;10527;52.124;5.196;2023-03-01T06:20:55;-0.30;99.90
20732;DHT22;10527;52.124;5.196;2023-03-01T06:23:23;-0.30;99.90
20732;DHT22;10527;52.124;5.196;2023-03-01T06:25:50;-0.30;99.90
20732;DHT22;10527;52.124;5.196;2023-03-01T06:28:17;-0.30;99.90
20732;DHT22;10527;52.124;5.196;2023-03-01T06:30:46;-0.30;99.90
20732;DHT22;10527;52.124;5.196;2023-03-01T06:33:20;-0.40;99.90
20732;DHT22;10527;52.124;5.196;2023-03-01T06:35:50;-0.40;99.90
20732;DHT22;10527;52.124;5.196;2023-03-01T06:38:20;-0.30;99.90
20732;DHT22;10527;52.124;5.196;2023-03-01T06:40:52;-0.30;99.90
20732;DHT22;10527;52.124;5.196;2023-03-01T06:43:22;-0.30;99.90
20732;DHT22;10527;52.124;5.196;2023-03-01T06:45:50;-0.30;99.90
20732;DHT22;10527;52.124;5.196;2023-03-01T06:48:17;-0.30;99.90
20732;DHT22;10527;52.124;5.196;2023-03-01T06:50:43;-0.40;99.90
20732;DHT22;10527;52.124;5.196;2023-03-01T06:53:10;-0.30;99.90
20732;DHT22;10527;52.124;5.196;2023-03-01T06:55:40;-0.30;99.90
20732;DHT22;10527;52.124;5.196;2023-03-01T06:58:09;-0.30;99.90
20732;DHT22;10527;52.124;5.196;2023-03-01T07:00:36;-0.30;99.90
20732;DHT22;10527;52.124;5.196;2023-03-01T07:03:05;-0.40;99.90
20732;DHT22;10527;52.124;5.196;2023-03-01T07:05:34;-0.40;99.90
20732;DHT22;10527;52.124;5.196;2023-03-01T07:08:01;-0.30;99.90
20732;DHT22;10527;52.124;5.196;2023-03-01T07:10:28;-0.30;99.90
20732;DHT22;10527;52.124;5.196;2023-03-01T07:13:00;-0.30;99.90
20732;DHT22;10527;52.124;5.196;2023-03-01T07:15:27;-0.30;99.90
20732;DHT22;10527;52.124;5.196;2023-03-01T07:17:56;-0.30;99.90
20732;DHT22;10527;52.124;5.196;2023-03-01T07:20:23;-0.20;99.90
20732;DHT22;10527;52.124;5.196;2023-03-01T07:22:52;-0.20;99.90
20732;DHT22;10527;52.124;5.196;2023-03-01T07:25:20;-0.10;99.90
20732;DHT22;10527;52.124;5.196;2023-03-01T07:27:51;-0.10;99.90
20732;DHT22;10527;52.124;5.196;2023-03-01T07:30:20;-0.10;99.90
20732;DHT22;10527;52.124;5.196;2023-03-01T07:32:47;-0.10;99.90
20732;DHT22;10527;52.124;5.196;2023-03-01T07:35:15;0.00;99.90
20732;DHT22;10527;52.124;5.196;2023-03-01T07:37:43;0.00;99.90
20732;DHT22;10527;52.124;5.196;2023-03-01T07:40:10;0.00;99.90
20732;DHT22;10527;52.124;5.196;2023-03-01T07:42:38;0.10;99.90
20732;DHT22;10527;52.124;5.196;2023-03-01T07:45:05;0.10;99.90
20732;DHT22;10527;52.124;5.196;2023-03-01T07:47:33;0.20;99.90
20732;DHT22;10527;52.124;5.196;2023-03-01T07:50:03;0.20;99.90
20732;DHT22;10527;52.124;5.196;2023-03-01T07:52:34;0.20;99.90
20732;DHT22;10527;52.124;5.196;2023-03-01T07:55:00;0.30;99.90
20732;DHT22;10527;52.124;5.196;2023-03-01T07:57:30;0.30;99.90
20732;DHT22;10527;52.124;5.196;2023-03-01T07:59:58;0.30;99.90
20732;DHT22;10527;52.124;5.196;2023-03-01T08:02:27;0.40;99.90
20732;DHT22;10527;52.124;5.196;2023-03-01T08:04:54;0.40;99.90
20732;DHT22;10527;52.124;5.196;2023-03-01T08:07:21;0.40;99.90
20732;DHT22;10527;52.124;5.196;2023-03-01T08:09:48;0.40;99.90
20732;DHT22;10527;52.124;5.196;2023-03-01T08:12:15;0.50;99.90
20732;DHT22;10527;52.124;5.196;2023-03-01T08:14:43;0.50;99.90
20732;DHT22;10527;52.124;5.196;2023-03-01T08:17:13;0.50;99.90
20732;DHT22;10527;52.124;5.196;2023-03-01T08:19:40;0.50;99.90
20732;DHT22;10527;52.124;5.196;2023-03-01T08:22:09;0.50;99.90
20732;DHT22;10527;52.124;5.196;2023-03-01T08:24:39;0.60;99.90
20732;DHT22;10527;52.124;5.196;2023-03-01T08:27:05;0.60;99.90
20732;DHT22;10527;52.124;5.196;2023-03-01T08:29:33;0.60;99.90
20732;DHT22;10527;52.124;5.196;2023-03-01T08:32:01;0.70;99.90
20732;DHT22;10527;52.124;5.196;2023-03-01T08:34:28;0.70;99.90
20732;DHT22;10527;52.124;5.196;2023-03-01T08:36:54;0.80;99.90
20732;DHT22;10527;52.124;5.196;2023-03-01T08:39:22;0.80;99.90
20732;DHT22;10527;52.124;5.196;2023-03-01T08:41:48;0.90;99.90
20732;DHT22;10527;52.124;5.196;2023-03-01T08:44:15;0.90;99.90
20732;DHT22;10527;52.124;5.196;2023-03-01T08:46:47;1.00;99.90
20732;DHT22;10527;52.124;5.196;2023-03-01T08:49:17;1.00;99.90
20732;DHT22;10527;52.124;5.196;2023-03-01T08:51:48;1.10;99.90
20732;DHT22;10527;52.124;5.196;2023-03-01T08:54:19;1.20;99.90
20732;DHT22;10527;52.124;5.196;2023-03-01T08:56:47;1.30;99.90
20732;DHT22;10527;52.124;5.196;2023-03-01T08:59:15;1.30;99.90
20732;DHT22;10527;52.124;5.196;2023-03-01T09:01:44;1.40;99.90
20732;DHT22;10527;52.124;5.196;2023-03-01T09:04:12;1.40;99.90
20732;DHT22;10527;52.124;5.196;2023-03-01T09:06:40;1.50;99.90
20732;DHT22;10527;52.124;5.196;2023-03-01T09:09:16;1.60;99.90
20732;DHT22;10527;52.124;5.196;2023-03-01T09:11:44;2.00;99.90
20732;DHT22;10527;52.124;5.196;2023-03-01T09:14:16;2.30;99.90
20732;DHT22;10527;52.124;5.196;2023-03-01T09:16:43;2.70;99.90
20732;DHT22;10527;52.124;5.196;2023-03-01T09:19:10;3.10;99.90
20732;DHT22;10527;52.124;5.196;2023-03-01T09:21:37;3.30;99.90
20732;DHT22;10527;52.124;5.196;2023-03-01T09:24:12;3.60;99.90
20732;DHT22;10527;52.124;5.196;2023-03-01T09:26:40;4.00;99.90
20732;DHT22;10527;52.124;5.196;2023-03-01T09:29:08;4.30;99.90
20732;DHT22;10527;52.124;5.196;2023-03-01T09:31:36;4.50;99.90
20732;DHT22;10527;52.124;5.196;2023-03-01T09:34:06;4.80;99.90
20732;DHT22;10527;52.124;5.196;2023-03-01T09:36:33;5.00;99.90
20732;DHT22;10527;52.124;5.196;2023-03-01T09:39:02;5.20;99.90
20732;DHT22;10527;52.124;5.196;2023-03-01T09:41:44;5.30;99.90
20732;DHT22;10527;52.124;5.196;2023-03-01T09:44:30;5.60;99.90
20732;DHT22;10527;52.124;5.196;2023-03-01T09:47:03;5.80;99.90
20732;DHT22;10527;52.124;5.196;2023-03-01T09:49:33;6.00;99.90
20732;DHT22;10527;52.124;5.196;2023-03-01T09:52:14;6.10;99.90
20732;DHT22;10527;52.124;5.196;2023-03-01T09:54:43;6.20;99.90
20732;DHT22;10527;52.124;5.196;2023-03-01T09:57:20;6.10;99.90
20732;DHT22;10527;52.124;5.196;2023-03-01T10:00:17;6.20;99.90
20732;DHT22;10527;52.124;5.196;2023-03-01T10:08:27;6.50;99.90
20732;DHT22;10527;52.124;5.196;2023-03-01T10:10:57;6.40;99.90
20732;DHT22;10527;52.124;5.196;2023-03-01T10:13:50;6.50;99.90
20732;DHT22;10527;52.124;5.196;2023-03-01T10:22:27;6.80;99.90
20732;DHT22;10527;52.124;5.196;2023-03-01T10:24:58;6.80;99.90
20732;DHT22;10527;52.124;5.196;2023-03-01T10:27:40;6.70;99.90
20732;DHT22;10527;52.124;5.196;2023-03-01T10:30:38;6.70;99.90
20732;DHT22;10527;52.124;5.196;2023-03-01T10:33:18;6.70;99.90
20732;DHT22;10527;52.124;5.196;2023-03-01T10:35:48;6.70;99.90
20732;DHT22;10527;52.124;5.196;2023-03-01T10:38:16;6.90;99.90
20732;DHT22;10527;52.124;5.196;2023-03-01T10:43:40;6.80;99.90
20732;DHT22;10527;52.124;5.196;2023-03-01T10:46:35;6.80;99.90
20732;DHT22;10527;52.124;5.196;2023-03-01T10:49:23;6.90;99.90
20732;DHT22;10527;52.124;5.196;2023-03-01T10:51:53;6.80;99.90
20732;DHT22;10527;52.124;5.196;2023-03-01T10:54:27;6.80;99.90
20732;DHT22;10527;52.124;5.196;2023-03-01T10:57:00;6.80;99.90
20732;DHT22;10527;52.124;5.196;2023-03-01T10:59:35;7.00;99.90
20732;DHT22;10527;52.124;5.196;2023-03-01T11:08:01;7.20;99.90
20732;DHT22;10527;52.124;5.196;2023-03-01T11:10:35;7.20;99.90
20732;DHT22;10527;52.124;5.196;2023-03-01T11:13:11;7.20;99.90
20732;DHT22;10527;52.124;5.196;2023-03-01T11:15:57;7.10;99.90
20732;DHT22;10527;52.124;5.196;2023-03-01T11:18:30;7.10;99.90
20732;DHT22;10527;52.124;5.196;2023-03-01T11:21:13;7.20;99.90
20732;DHT22;10527;52.124;5.196;2023-03-01T11:23:43;7.30;99.90
20732;DHT22;10527;52.124;5.196;2023-03-01T11:26:17;7.20;99.90
20732;DHT22;10527;52.124;5.196;2023-03-01T11:28:50;7.20;99.90
20732;DHT22;10527;52.124;5.196;2023-03-01T11:31:23;7.30;99.90
20732;DHT22;10527;52.124;5.196;2023-03-01T11:34:12;7.40;99.90
20732;DHT22;10527;52.124;5.196;2023-03-01T11:36:56;7.40;99.90
20732;DHT22;10527;52.124;5.196;2023-03-01T11:45:15;7.50;99.90
20732;DHT22;10527;52.124;5.196;2023-03-01T11:48:14;7.50;99.90
20732;DHT22;10527;52.124;5.196;2023-03-01T11:54:48;7.60;99.90
20732;DHT22;10527;52.124;5.196;2023-03-01T12:00:46;7.60;99.90
20732;DHT22;10527;52.124;5.196;2023-03-01T12:15:42;7.90;99.90
20732;DHT22;10527;52.124;5.196;2023-03-01T12:21:20;8.20;99.90
20732;DHT22;10527;52.124;5.196;2023-03-01T12:35:59;8.30;99.90
20732;DHT22;10527;52.124;5.196;2023-03-01T12:42:13;8.50;99.90
20732;DHT22;10527;52.124;5.196;2023-03-01T12:50:44;8.50;99.90
20732;DHT22;10527;52.124;5.196;2023-03-01T12:53:28;8.60;99.90
20732;DHT22;10527;52.124;5.196;2023-03-01T12:56:01;8.70;99.90
20732;DHT22;10527;52.124;5.196;2023-03-01T13:01:45;8.60;99.90
20732;DHT22;10527;52.124;5.196;2023-03-01T13:07:15;8.60;99.90
20732;DHT22;10527;52.124;5.196;2023-03-01T13:20:27;8.60;99.90
20732;DHT22;10527;52.124;5.196;2023-03-01T13:31:55;8.90;99.90
20732;DHT22;10527;52.124;5.196;2023-03-01T13:33:59;8.80;99.90
20732;DHT22;10527;52.124;5.196;2023-03-01T13:39:02;8.90;99.90
20732;DHT22;10527;52.124;5.196;2023-03-01T13:41:52;8.90;99.90
20732;DHT22;10527;52.124;5.196;2023-03-01T13:47:12;9.00;99.90
20732;DHT22;10527;52.124;5.196;2023-03-01T13:50:01;9.20;99.90
20732;DHT22;10527;52.124;5.196;2023-03-01T13:53:10;8.90;99.90
20732;DHT22;10527;52.124;5.196;2023-03-01T13:55:50;8.90;99.90
20732;DHT22;10527;52.124;5.196;2023-03-01T13:58:25;9.00;99.90
20732;DHT22;10527;52.124;5.196;2023-03-01T14:03:31;9.00;99.90
20732;DHT22;10527;52.124;5.196;2023-03-01T14:06:13;9.20;99.90
20732;DHT22;10527;52.124;5.196;2023-03-01T14:08:49;9.10;99.90
20732;DHT22;10527;52.124;5.196;2023-03-01T14:11:35;9.20;99.90
20732;DHT22;10527;52.124;5.196;2023-03-01T14:17:55;9.20;99.90
20732;DHT22;10527;52.124;5.196;2023-03-01T14:20:30;9.10;99.90
20732;DHT22;10527;52.124;5.196;2023-03-01T14:23:02;9.20;99.90
20732;DHT22;10527;52.124;5.196;2023-03-01T14:25:38;9.20;99.90
20732;DHT22;10527;52.124;5.196;2023-03-01T14:28:15;9.30;99.90
20732;DHT22;10527;52.124;5.196;2023-03-01T14:31:39;9.20;99.90
20732;DHT22;10527;52.124;5.196;2023-03-01T14:34:23;9.20;99.90
20732;DHT22;10527;52.124;5.196;2023-03-01T14:36:54;9.20;99.90
20732;DHT22;10527;52.124;5.196;2023-03-01T14:39:25;9.30;99.90
20732;DHT22;10527;52.124;5.196;2023-03-01T14:41:53;9.30;99.90
20732;DHT22;10527;52.124;5.196;2023-03-01T14:44:22;9.40;99.90
20732;DHT22;10527;52.124;5.196;2023-03-01T14:46:57;9.50;99.90
20732;DHT22;10527;52.124;5.196;2023-03-01T14:49:27;9.40;99.90
20732;DHT22;10527;52.124;5.196;2023-03-01T14:52:07;9.30;99.90
20732;DHT22;10527;52.124;5.196;2023-03-01T14:54:50;9.30;99.90
20732;DHT22;10527;52.124;5.196;2023-03-01T14:57:24;9.20;99.90
20732;DHT22;10527;52.124;5.196;2023-03-01T14:59:54;9.30;99.90
20732;DHT22;10527;52.124;5.196;2023-03-01T15:02:25;9.40;99.90
20732;DHT22;10527;52.124;5.196;2023-03-01T15:04:58;9.30;99.90
20732;DHT22;10527;52.124;5.196;2023-03-01T15:07:33;9.40;99.90
20732;DHT22;10527;52.124;5.196;2023-03-01T15:10:05;9.40;99.90
20732;DHT22;10527;52.124;5.196;2023-03-01T15:12:41;9.50;99.90
20732;DHT22;10527;52.124;5.196;2023-03-01T15:15:34;9.50;99.90
20732;DHT22;10527;52.124;5.196;2023-03-01T15:18:11;9.50;99.90
20732;DHT22;10527;52.124;5.196;2023-03-01T15:20:42;9.30;99.90
20732;DHT22;10527;52.124;5.196;2023-03-01T15:25:51;9.60;99.90
20732;DHT22;10527;52.124;5.196;2023-03-01T15:28:33;9.50;99.90
20732;DHT22;10527;52.124;5.196;2023-03-01T15:31:22;9.50;99.90
20732;DHT22;10527;52.124;5.196;2023-03-01T15:36:53;9.30;99.90
20732;DHT22;10527;52.124;5.196;2023-03-01T15:41:59;9.20;99.90
20732;DHT22;10527;52.124;5.196;2023-03-01T15:44:30;9.30;99.90
20732;DHT22;10527;52.124;5.196;2023-03-01T15:47:24;9.20;99.90
20732;DHT22;10527;52.124;5.196;2023-03-01T15:49:57;9.10;99.90
20732;DHT22;10527;52.124;5.196;2023-03-01T15:52:40;9.10;99.90
20732;DHT22;10527;52.124;5.196;2023-03-01T15:55:18;9.10;99.90
20732;DHT22;10527;52.124;5.196;2023-03-01T15:57:49;9.10;99.90
20732;DHT22;10527;52.124;5.196;2023-03-01T16:00:17;9.00;99.90
20732;DHT22;10527;52.124;5.196;2023-03-01T16:02:48;9.00;99.90
20732;DHT22;10527;52.124;5.196;2023-03-01T16:05:24;9.00;99.90
20732;DHT22;10527;52.124;5.196;2023-03-01T16:07:53;9.00;99.90
20732;DHT22;10527;52.124;5.196;2023-03-01T16:10:24;8.90;99.90
20732;DHT22;10527;52.124;5.196;2023-03-01T16:12:54;8.90;99.90
20732;DHT22;10527;52.124;5.196;2023-03-01T16:15:30;8.70;99.90
20732;DHT22;10527;52.124;5.196;2023-03-01T16:18:04;8.70;99.90
20732;DHT22;10527;52.124;5.196;2023-03-01T16:20:35;8.60;99.90
20732;DHT22;10527;52.124;5.196;2023-03-01T16:23:05;8.50;99.90
20732;DHT22;10527;52.124;5.196;2023-03-01T16:25:34;8.50;99.90
20732;DHT22;10527;52.124;5.196;2023-03-01T16:28:02;8.40;99.90
20732;DHT22;10527;52.124;5.196;2023-03-01T16:30:38;8.40;99.90
20732;DHT22;10527;52.124;5.196;2023-03-01T16:33:06;8.40;99.90
20732;DHT22;10527;52.124;5.196;2023-03-01T16:35:50;8.30;99.90
20732;DHT22;10527;52.124;5.196;2023-03-01T16:38:17;8.30;99.90
20732;DHT22;10527;52.124;5.196;2023-03-01T16:40:49;8.10;99.90
20732;DHT22;10527;52.124;5.196;2023-03-01T16:43:18;8.00;99.90
20732;DHT22;10527;52.124;5.196;2023-03-01T16:45:45;8.00;99.90
20732;DHT22;10527;52.124;5.196;2023-03-01T16:48:12;8.00;99.90
20732;DHT22;10527;52.124;5.196;2023-03-01T16:50:39;8.00;99.90
20732;DHT22;10527;52.124;5.196;2023-03-01T16:53:07;7.90;99.90
20732;DHT22;10527;52.124;5.196;2023-03-01T16:55:34;7.90;99.90
20732;DHT22;10527;52.124;5.196;2023-03-01T16:58:03;7.90;99.90
20732;DHT22;10527;52.124;5.196;2023-03-01T17:00:30;7.90;99.90
20732;DHT22;10527;52.124;5.196;2023-03-01T17:02:57;7.70;99.90
20732;DHT22;10527;52.124;5.196;2023-03-01T17:05:24;7.70;99.90
20732;DHT22;10527;52.124;5.196;2023-03-01T17:07:52;7.60;99.90
20732;DHT22;10527;52.124;5.196;2023-03-01T17:10:25;7.50;99.90
20732;DHT22;10527;52.124;5.196;2023-03-01T17:12:51;7.50;99.90
20732;DHT22;10527;52.124;5.196;2023-03-01T17:15:18;7.40;99.90
20732;DHT22;10527;52.124;5.196;2023-03-01T17:17:48;7.40;99.90
20732;DHT22;10527;52.124;5.196;2023-03-01T17:20:17;7.40;99.90
20732;DHT22;10527;52.124;5.196;2023-03-01T17:22:44;7.30;99.90
20732;DHT22;10527;52.124;5.196;2023-03-01T17:25:12;7.30;99.90
20732;DHT22;10527;52.124;5.196;2023-03-01T17:27:39;7.20;99.90
20732;DHT22;10527;52.124;5.196;2023-03-01T17:30:08;7.20;99.90
20732;DHT22;10527;52.124;5.196;2023-03-01T17:32:40;7.10;99.90
20732;DHT22;10527;52.124;5.196;2023-03-01T17:35:08;7.00;99.90
20732;DHT22;10527;52.124;5.196;2023-03-01T17:37:38;6.90;99.90
20732;DHT22;10527;52.124;5.196;2023-03-01T17:40:09;6.90;99.90
20732;DHT22;10527;52.124;5.196;2023-03-01T17:42:36;6.90;99.90
20732;DHT22;10527;52.124;5.196;2023-03-01T17:45:11;6.80;99.90
20732;DHT22;10527;52.124;5.196;2023-03-01T17:47:38;6.80;99.90
20732;DHT22;10527;52.124;5.196;2023-03-01T17:50:05;6.80;99.90
20732;DHT22;10527;52.124;5.196;2023-03-01T17:52:36;6.70;99.90
20732;DHT22;10527;52.124;5.196;2023-03-01T17:55:04;6.70;99.90
20732;DHT22;10527;52.124;5.196;2023-03-01T17:57:34;6.60;99.90
20732;DHT22;10527;52.124;5.196;2023-03-01T18:00:05;6.60;99.90
20732;DHT22;10527;52.124;5.196;2023-03-01T18:02:35;6.50;99.90
20732;DHT22;10527;52.124;5.196;2023-03-01T18:05:02;6.40;99.90
20732;DHT22;10527;52.124;5.196;2023-03-01T18:07:29;6.40;99.90
20732;DHT22;10527;52.124;5.196;2023-03-01T18:09:56;6.30;99.90
20732;DHT22;10527;52.124;5.196;2023-03-01T18:12:23;6.20;99.90
20732;DHT22;10527;52.124;5.196;2023-03-01T18:14:53;6.30;99.90
20732;DHT22;10527;52.124;5.196;2023-03-01T18:17:23;6.20;99.90
20732;DHT22;10527;52.124;5.196;2023-03-01T18:19:54;6.20;99.90